createdAt,value
2018-03-26T00:00:58.171Z,4.50
2018-03-26T00:03:25.700Z,4.40
2018-03-26T00:05:54.078Z,4.40
2018-03-26T00:08:22.835Z,4.40
2018-03-26T00:10:50.323Z,4.40
2018-03-26T00:13:18.720Z,4.50
2018-03-26T00:15:47.068Z,4.40
2018-03-26T00:18:14.723Z,4.40
2018-03-26T00:20:42.182Z,4.50
2018-03-26T00:23:09.643Z,4.50
2018-03-26T00:25:37.191Z,4.50
2018-03-26T00:28:04.659Z,4.40
2018-03-26T00:30:32.174Z,4.50
2018-03-26T00:33:00.650Z,4.40
2018-03-26T00:35:28.179Z,4.40
2018-03-26T00:37:55.666Z,4.50
2018-03-26T00:40:23.090Z,4.40
2018-03-26T00:42:52.312Z,4.50
2018-03-26T00:45:19.799Z,4.40
2018-03-26T00:47:47.363Z,4.50
2018-03-26T00:50:14.847Z,4.50
2018-03-26T00:52:42.439Z,4.50
2018-03-26T00:55:09.969Z,4.50
2018-03-26T00:57:37.450Z,4.50
2018-03-26T01:00:05.639Z,4.50
2018-03-26T01:02:33.117Z,4.40
2018-03-26T01:05:00.632Z,4.50
2018-03-26T01:07:29.687Z,4.50
2018-03-26T01:09:57.214Z,4.40
2018-03-26T01:12:25.462Z,4.40
2018-03-26T01:14:53.121Z,4.40
2018-03-26T01:17:20.583Z,4.40
2018-03-26T01:19:48.027Z,4.40
2018-03-26T01:22:16.375Z,4.40
2018-03-26T01:24:50.860Z,4.40
2018-03-26T01:27:18.302Z,4.40
2018-03-26T01:29:46.596Z,4.50
2018-03-26T01:32:14.848Z,4.40
2018-03-26T01:34:42.371Z,4.40
2018-03-26T01:37:09.837Z,4.40
2018-03-26T01:39:37.309Z,4.40
2018-03-26T01:42:04.744Z,4.40
2018-03-26T01:44:32.215Z,4.40
2018-03-26T01:46:59.661Z,4.30
2018-03-26T01:49:27.127Z,4.30
2018-03-26T01:51:54.607Z,4.30
2018-03-26T01:54:22.195Z,4.30
2018-03-26T01:56:49.677Z,4.30
2018-03-26T01:59:18.662Z,4.30
2018-03-26T02:01:46.264Z,4.30
2018-03-26T02:04:13.738Z,4.30
2018-03-26T02:06:41.191Z,4.30
2018-03-26T02:09:08.651Z,4.40
2018-03-26T02:11:36.115Z,4.40
2018-03-26T02:14:03.585Z,4.30
2018-03-26T02:16:31.091Z,4.40
2018-03-26T02:18:58.621Z,4.40
2018-03-26T02:21:26.475Z,4.40
2018-03-26T02:23:54.004Z,4.40
2018-03-26T02:26:45.376Z,4.40
2018-03-26T02:29:12.832Z,4.40
2018-03-26T02:31:40.426Z,4.40
2018-03-26T02:34:08.175Z,4.40
2018-03-26T02:36:35.635Z,4.40
2018-03-26T02:39:03.152Z,4.40
2018-03-26T02:41:31.409Z,4.40
2018-03-26T02:43:59.010Z,4.40
2018-03-26T02:46:26.506Z,4.40
2018-03-26T02:48:54.440Z,4.40
2018-03-26T02:51:21.946Z,4.40
2018-03-26T02:53:49.411Z,4.40
2018-03-26T02:56:18.373Z,4.40
2018-03-26T02:58:45.839Z,4.40
2018-03-26T03:01:13.367Z,4.40
2018-03-26T03:03:40.905Z,4.40
2018-03-26T03:06:08.364Z,4.40
2018-03-26T03:08:36.596Z,4.30
2018-03-26T03:11:04.090Z,4.30
2018-03-26T03:13:32.355Z,4.30
2018-03-26T03:15:59.817Z,4.30
2018-03-26T03:18:27.307Z,4.40
2018-03-26T03:20:54.748Z,4.40
2018-03-26T03:23:23.963Z,4.40
2018-03-26T03:25:52.146Z,4.50
2018-03-26T03:28:20.481Z,4.40
2018-03-26T03:30:48.065Z,4.50
2018-03-26T03:33:15.545Z,4.50
2018-03-26T03:35:43.030Z,4.60
2018-03-26T03:38:10.584Z,4.60
2018-03-26T03:40:46.575Z,4.50
2018-03-26T03:43:15.547Z,4.50
2018-03-26T03:45:43.157Z,4.50
2018-03-26T03:48:11.427Z,4.50
2018-03-26T03:50:39.664Z,4.50
2018-03-26T03:53:07.146Z,4.40
2018-03-26T03:55:36.126Z,4.40
2018-03-26T03:58:03.639Z,4.40
2018-03-26T04:00:31.224Z,4.50
2018-03-26T04:02:58.674Z,4.50
2018-03-26T04:05:26.176Z,4.50
2018-03-26T04:07:53.649Z,4.50
2018-03-26T04:10:21.925Z,4.50
2018-03-26T04:12:50.201Z,4.50
2018-03-26T04:15:18.564Z,4.50
2018-03-26T04:17:46.025Z,4.40
2018-03-26T04:20:18.157Z,4.50
2018-03-26T04:22:45.611Z,4.40
2018-03-26T04:25:13.120Z,4.50
2018-03-26T04:27:41.383Z,4.50
2018-03-26T04:30:09.424Z,4.40
2018-03-26T04:32:36.893Z,4.50
2018-03-26T04:35:04.391Z,4.50
2018-03-26T04:37:32.612Z,4.50
2018-03-26T04:40:00.129Z,4.50
2018-03-26T04:42:28.477Z,4.60
2018-03-26T04:44:58.558Z,4.50
2018-03-26T04:47:26.048Z,4.50
2018-03-26T04:49:53.539Z,4.60
2018-03-26T04:52:21.771Z,4.60
2018-03-26T04:54:50.209Z,4.60
2018-03-26T04:57:18.431Z,4.60
2018-03-26T04:59:45.996Z,4.60
2018-03-26T05:02:13.580Z,4.70
2018-03-26T05:04:40.989Z,4.60
2018-03-26T05:07:08.451Z,4.60
2018-03-26T05:09:36.047Z,4.60
2018-03-26T05:12:03.490Z,4.60
2018-03-26T05:14:30.948Z,4.60
2018-03-26T05:19:55.580Z,4.60
2018-03-26T05:22:23.067Z,4.60
2018-03-26T05:24:51.795Z,4.60
2018-03-26T05:27:19.240Z,4.60
2018-03-26T05:29:46.689Z,4.60
2018-03-26T05:32:14.184Z,4.60
2018-03-26T05:34:41.659Z,4.60
2018-03-26T05:37:09.167Z,4.60
2018-03-26T05:39:36.631Z,4.60
2018-03-26T05:42:04.084Z,4.60
2018-03-26T05:44:31.582Z,4.60
2018-03-26T05:47:16.379Z,4.60
2018-03-26T05:49:44.589Z,4.60
2018-03-26T05:52:27.664Z,4.50
2018-03-26T05:54:55.095Z,4.60
2018-03-26T05:57:22.563Z,4.70
2018-03-26T05:59:50.009Z,4.70
2018-03-26T06:02:17.480Z,4.70
2018-03-26T06:04:45.709Z,4.70
2018-03-26T06:07:13.175Z,4.70
2018-03-26T06:09:47.247Z,4.70
2018-03-26T06:12:14.687Z,4.70
2018-03-26T06:14:43.078Z,4.70
2018-03-26T06:17:23.955Z,4.70
2018-03-26T06:19:52.165Z,4.70
2018-03-26T06:22:19.690Z,4.70
2018-03-26T06:24:47.144Z,4.70
2018-03-26T06:27:15.365Z,4.70
2018-03-26T06:29:42.831Z,4.70
2018-03-26T06:34:43.687Z,4.80
2018-03-26T06:37:12.023Z,4.90
2018-03-26T06:39:40.254Z,5.00
2018-03-26T06:42:07.818Z,4.90
2018-03-26T06:44:35.325Z,5.10
2018-03-26T06:47:03.320Z,5.10
2018-03-26T06:49:30.822Z,5.20
2018-03-26T06:51:58.271Z,5.30
2018-03-26T06:54:27.281Z,5.40
2018-03-26T06:56:54.845Z,5.40
2018-03-26T06:59:23.117Z,5.50
2018-03-26T07:01:51.343Z,5.60
2018-03-26T07:04:18.865Z,5.50
2018-03-26T07:06:47.094Z,5.60
2018-03-26T07:09:14.528Z,5.60
2018-03-26T07:11:42.005Z,5.60
2018-03-26T07:14:18.735Z,5.60
2018-03-26T07:16:46.992Z,5.60
2018-03-26T07:19:14.437Z,5.50
2018-03-26T07:21:41.901Z,5.60
2018-03-26T07:27:09.874Z,5.80
2018-03-26T07:29:37.330Z,5.80
2018-03-26T07:32:11.024Z,5.90
2018-03-26T07:34:38.578Z,6.00
2018-03-26T07:37:06.031Z,6.00
2018-03-26T07:39:34.187Z,6.00
2018-03-26T07:42:15.538Z,6.00
2018-03-26T07:50:28.014Z,6.10
2018-03-26T07:55:49.499Z,6.20
2018-03-26T07:58:16.951Z,6.40
2018-03-26T08:03:25.274Z,6.50
2018-03-26T08:05:52.727Z,6.50
2018-03-26T08:08:26.670Z,6.50
2018-03-26T08:10:54.902Z,6.60
2018-03-26T08:13:22.365Z,6.50
2018-03-26T08:15:49.873Z,6.60
2018-03-26T08:18:17.307Z,6.60
2018-03-26T08:20:44.886Z,6.70
2018-03-26T08:23:13.332Z,6.80
2018-03-26T08:25:40.769Z,6.70
2018-03-26T08:28:08.225Z,6.80
2018-03-26T08:30:37.807Z,6.80
2018-03-26T08:33:06.018Z,7.00
2018-03-26T08:35:33.498Z,6.90
2018-03-26T08:38:00.928Z,7.00
2018-03-26T08:40:28.389Z,7.10
2018-03-26T08:42:55.854Z,7.20
2018-03-26T08:45:30.133Z,7.20
2018-03-26T08:47:58.363Z,7.50
2018-03-26T08:50:25.881Z,7.40
2018-03-26T08:55:27.428Z,7.30
2018-03-26T08:57:54.865Z,7.40
2018-03-26T09:00:22.385Z,7.40
2018-03-26T09:02:49.815Z,7.30
2018-03-26T09:05:18.142Z,7.50
2018-03-26T09:07:45.583Z,7.50
2018-03-26T09:10:13.043Z,7.50
2018-03-26T09:12:40.499Z,7.60
2018-03-26T09:15:07.939Z,7.70
2018-03-26T09:17:35.443Z,7.80
2018-03-26T09:20:05.555Z,7.70
2018-03-26T09:22:33.036Z,7.80
2018-03-26T09:25:03.012Z,7.80
2018-03-26T09:27:30.499Z,7.90
2018-03-26T09:29:57.984Z,7.90
2018-03-26T09:32:25.452Z,7.90
2018-03-26T09:34:53.683Z,7.80
2018-03-26T09:37:21.299Z,7.70
2018-03-26T09:39:49.510Z,7.80
2018-03-26T09:42:16.978Z,7.80
2018-03-26T09:44:44.424Z,7.80
2018-03-26T09:47:11.903Z,7.80
2018-03-26T09:49:39.412Z,8.00
2018-03-26T09:52:06.857Z,7.90
2018-03-26T09:54:35.073Z,8.20
2018-03-26T09:57:02.520Z,8.10
2018-03-26T09:59:58.194Z,8.20
2018-03-26T10:02:25.633Z,8.30
2018-03-26T10:04:53.105Z,8.30
2018-03-26T10:07:20.583Z,8.40
2018-03-26T10:09:48.029Z,8.40
2018-03-26T10:12:16.327Z,8.40
2018-03-26T10:14:44.545Z,8.20
2018-03-26T10:17:11.995Z,8.20
2018-03-26T10:19:39.488Z,8.20
2018-03-26T10:22:31.265Z,8.40
2018-03-26T10:24:58.758Z,8.30
2018-03-26T10:27:26.199Z,8.50
2018-03-26T10:29:53.646Z,8.70
2018-03-26T10:32:21.112Z,8.70
2018-03-26T10:34:48.559Z,8.60
2018-03-26T10:37:16.008Z,8.50
2018-03-26T10:39:43.441Z,8.60
2018-03-26T10:42:11.718Z,8.90
2018-03-26T10:44:39.124Z,8.80
2018-03-26T10:47:06.586Z,8.90
2018-03-26T10:49:34.037Z,8.80
2018-03-26T10:52:01.501Z,8.70
2018-03-26T10:54:28.940Z,8.80
2018-03-26T10:56:56.447Z,8.80
2018-03-26T10:59:23.884Z,8.80
2018-03-26T11:01:51.339Z,8.90
2018-03-26T11:04:31.699Z,9.10
2018-03-26T11:06:59.145Z,9.00
2018-03-26T11:09:26.595Z,9.00
2018-03-26T11:11:54.081Z,9.10
2018-03-26T11:14:21.562Z,9.10
2018-03-26T11:16:49.773Z,9.30
2018-03-26T11:19:17.195Z,9.30
2018-03-26T11:21:45.431Z,9.40
2018-03-26T11:24:12.883Z,9.30
2018-03-26T11:26:40.387Z,9.40
2018-03-26T11:29:07.890Z,9.60
2018-03-26T11:31:35.353Z,9.60
2018-03-26T11:34:02.807Z,9.70
2018-03-26T11:36:30.257Z,9.60
2018-03-26T11:38:57.686Z,9.60
2018-03-26T11:41:25.947Z,9.00
2018-03-26T11:43:53.535Z,9.00
2018-03-26T11:49:13.650Z,9.20
2018-03-26T11:51:41.127Z,9.40
2018-03-26T11:54:08.638Z,9.40
2018-03-26T11:56:36.855Z,9.40
2018-03-26T11:59:04.301Z,9.40
2018-03-26T12:01:31.745Z,9.50
2018-03-26T12:03:59.191Z,9.50
2018-03-26T12:06:26.647Z,9.40
2018-03-26T12:08:54.913Z,9.40
2018-03-26T12:11:22.338Z,9.40
2018-03-26T12:13:49.822Z,9.40
2018-03-26T12:16:17.257Z,9.40
2018-03-26T12:18:44.815Z,9.50
2018-03-26T12:21:12.252Z,9.70
2018-03-26T12:23:51.734Z,9.80
2018-03-26T12:26:19.253Z,9.70
2018-03-26T12:28:58.479Z,9.70
2018-03-26T12:31:25.953Z,9.70
2018-03-26T12:34:05.537Z,9.80
2018-03-26T12:36:33.796Z,9.70
2018-03-26T12:39:01.227Z,9.60
2018-03-26T12:41:28.676Z,9.70
2018-03-26T12:43:56.136Z,9.60
2018-03-26T12:49:15.203Z,9.80
2018-03-26T12:51:54.565Z,9.70
2018-03-26T12:54:22.017Z,9.70
2018-03-26T12:59:49.899Z,9.80
2018-03-26T13:02:32.119Z,9.80
2018-03-26T13:04:59.621Z,10.10
2018-03-26T13:07:28.227Z,10.20
2018-03-26T13:09:55.719Z,10.10
2018-03-26T13:12:23.282Z,10.20
2018-03-26T13:14:50.791Z,10.30
2018-03-26T13:17:18.991Z,10.20
2018-03-26T13:19:46.487Z,10.10
2018-03-26T13:22:13.939Z,10.20
2018-03-26T13:24:41.412Z,10.10
2018-03-26T13:27:09.672Z,9.90
2018-03-26T13:29:37.123Z,9.80
2018-03-26T13:32:04.619Z,9.90
2018-03-26T13:34:41.372Z,9.70
2018-03-26T13:37:09.925Z,9.70
2018-03-26T13:39:37.381Z,9.70
2018-03-26T13:42:04.844Z,9.80
2018-03-26T13:44:32.299Z,9.70
2018-03-26T13:47:07.802Z,9.70
2018-03-26T13:49:36.037Z,9.70
2018-03-26T13:52:03.549Z,9.60
2018-03-26T13:54:31.021Z,9.70
2018-03-26T13:56:58.596Z,9.80
2018-03-26T13:59:26.112Z,9.80
2018-03-26T14:01:54.391Z,9.80
2018-03-26T14:04:22.633Z,9.70
2018-03-26T14:06:50.051Z,9.60
2018-03-26T14:09:29.262Z,9.60
2018-03-26T14:12:09.532Z,9.40
2018-03-26T14:14:48.907Z,9.30
2018-03-26T14:20:20.164Z,9.50
2018-03-26T14:22:47.707Z,9.50
2018-03-26T14:25:15.144Z,9.60
2018-03-26T14:27:43.655Z,9.50
2018-03-26T14:30:11.097Z,9.60
2018-03-26T14:33:03.132Z,9.80
2018-03-26T14:35:45.290Z,9.90
2018-03-26T14:38:12.765Z,10.00
2018-03-26T14:40:41.043Z,10.10
2018-03-26T14:43:12.054Z,10.20
2018-03-26T14:45:40.890Z,10.10
2018-03-26T14:48:10.688Z,10.20
2018-03-26T14:53:22.308Z,10.10
2018-03-26T14:55:49.830Z,10.20
2018-03-26T14:58:30.537Z,10.00
2018-03-26T15:00:58.744Z,10.10
2018-03-26T15:03:26.192Z,10.00
2018-03-26T15:05:53.657Z,10.00
2018-03-26T15:08:21.122Z,10.10
2018-03-26T15:10:48.564Z,10.10
2018-03-26T15:13:16.048Z,10.10
2018-03-26T15:15:43.491Z,9.90
2018-03-26T15:18:11.535Z,10.00
2018-03-26T15:20:38.974Z,10.00
2018-03-26T15:23:07.189Z,10.10
2018-03-26T15:25:34.694Z,10.00
2018-03-26T15:28:02.140Z,10.20
2018-03-26T15:30:29.600Z,10.40
2018-03-26T15:32:57.082Z,10.60
2018-03-26T15:35:25.300Z,10.30
2018-03-26T15:37:52.795Z,10.20
2018-03-26T15:40:20.345Z,10.50
2018-03-26T15:42:50.490Z,10.60
2018-03-26T15:45:17.941Z,10.80
2018-03-26T15:47:45.427Z,10.90
2018-03-26T15:50:12.937Z,11.00
2018-03-26T15:52:40.408Z,11.00
2018-03-26T15:55:07.827Z,11.10
2018-03-26T15:57:35.305Z,10.90
2018-03-26T16:00:02.778Z,10.70
2018-03-26T16:02:35.858Z,10.60
2018-03-26T16:05:03.800Z,10.40
2018-03-26T16:07:36.080Z,10.30
2018-03-26T16:10:03.624Z,10.20
2018-03-26T16:12:31.043Z,10.30
2018-03-26T16:14:59.459Z,10.30
2018-03-26T16:17:26.926Z,10.30
2018-03-26T16:19:54.562Z,10.40
2018-03-26T16:22:22.749Z,10.50
2018-03-26T16:24:51.065Z,10.40
2018-03-26T16:27:18.583Z,10.90
2018-03-26T16:29:46.689Z,10.80
2018-03-26T16:32:32.628Z,10.50
2018-03-26T16:37:58.200Z,9.70
2018-03-26T16:40:38.569Z,9.70
2018-03-26T16:43:06.996Z,9.80
2018-03-26T16:45:36.050Z,9.30
2018-03-26T16:48:03.716Z,9.30
2018-03-26T16:50:32.089Z,9.20
2018-03-26T16:53:00.449Z,9.10
2018-03-26T16:55:28.063Z,9.10
2018-03-26T16:57:55.604Z,8.90
2018-03-26T17:00:23.081Z,8.80
2018-03-26T17:02:51.321Z,8.70
2018-03-26T17:05:18.887Z,8.50
2018-03-26T17:07:46.372Z,8.40
2018-03-26T17:10:13.871Z,8.20
2018-03-26T17:12:41.399Z,8.10
2018-03-26T17:15:08.901Z,8.00
2018-03-26T17:17:36.376Z,7.90
2018-03-26T17:20:03.924Z,7.80
2018-03-26T17:22:32.916Z,7.60
2018-03-26T17:25:00.380Z,7.40
2018-03-26T17:27:27.832Z,7.20
2018-03-26T17:29:55.427Z,7.00
2018-03-26T17:32:23.564Z,7.00
2018-03-26T17:34:51.040Z,6.90
2018-03-26T17:37:21.444Z,6.80
2018-03-26T17:39:49.555Z,6.80
2018-03-26T17:42:17.244Z,6.70
2018-03-26T17:44:45.484Z,6.60
2018-03-26T17:47:13.440Z,6.60
2018-03-26T17:49:40.895Z,6.60
2018-03-26T17:52:09.941Z,6.50
2018-03-26T17:54:38.166Z,6.50
2018-03-26T17:57:05.724Z,6.40
2018-03-26T17:59:33.220Z,6.40
2018-03-26T18:02:00.684Z,6.40
2018-03-26T18:04:28.916Z,6.20
2018-03-26T18:06:56.358Z,6.20
2018-03-26T18:09:23.926Z,6.20
2018-03-26T18:11:51.537Z,6.10
2018-03-26T18:14:18.987Z,6.00
2018-03-26T18:16:47.274Z,5.90
2018-03-26T18:19:14.757Z,5.80
2018-03-26T18:21:42.995Z,5.80
2018-03-26T18:24:12.876Z,5.70
2018-03-26T18:26:41.022Z,5.70
2018-03-26T18:29:09.429Z,5.60
2018-03-26T18:31:36.896Z,5.50
2018-03-26T18:34:04.345Z,5.50
2018-03-26T18:36:31.863Z,5.40
2018-03-26T18:39:00.102Z,5.20
2018-03-26T18:41:27.567Z,5.20
2018-03-26T18:43:55.139Z,5.20
2018-03-26T18:46:22.602Z,5.10
2018-03-26T18:48:50.080Z,5.00
2018-03-26T18:51:18.345Z,4.90
2018-03-26T18:53:45.784Z,4.80
2018-03-26T18:56:14.578Z,4.80
2018-03-26T18:58:42.310Z,4.70
2018-03-26T19:01:09.854Z,4.70
2018-03-26T19:03:37.348Z,4.60
2018-03-26T19:06:04.825Z,4.60
2018-03-26T19:08:33.812Z,4.50
2018-03-26T19:11:01.260Z,4.50
2018-03-26T19:13:28.752Z,4.50
2018-03-26T19:15:56.982Z,4.50
2018-03-26T19:18:24.440Z,4.40
2018-03-26T19:20:51.923Z,4.50
2018-03-26T19:23:20.137Z,4.30
2018-03-26T19:25:48.568Z,4.20
2018-03-26T19:28:16.019Z,4.20
2018-03-26T19:30:43.520Z,4.20
2018-03-26T19:33:11.775Z,4.10
2018-03-26T19:35:40.085Z,4.00
2018-03-26T19:38:08.308Z,4.00
2018-03-26T19:40:36.054Z,3.90
2018-03-26T19:43:03.509Z,3.90
2018-03-26T19:45:31.112Z,3.90
2018-03-26T19:47:58.613Z,3.80
2018-03-26T19:50:26.196Z,3.70
2018-03-26T19:52:53.843Z,3.70
2018-03-26T19:55:22.992Z,3.60
2018-03-26T19:57:51.215Z,3.60
2018-03-26T20:00:18.793Z,3.50
2018-03-26T20:02:46.272Z,3.50
2018-03-26T20:05:14.852Z,3.30
2018-03-26T20:07:43.219Z,3.30
2018-03-26T20:10:15.882Z,3.30
2018-03-26T20:12:43.364Z,3.20
2018-03-26T20:15:10.847Z,3.20
2018-03-26T20:17:40.677Z,3.10
2018-03-26T20:20:08.964Z,3.10
2018-03-26T20:22:36.909Z,3.10
2018-03-26T20:28:00.151Z,2.90
2018-03-26T20:30:30.479Z,2.90
2018-03-26T20:33:01.650Z,2.90
2018-03-26T20:35:34.743Z,2.80
2018-03-26T20:38:05.070Z,2.70
2018-03-26T20:40:43.943Z,2.70
2018-03-26T20:46:06.437Z,2.70
2018-03-26T20:48:34.889Z,2.60
2018-03-26T20:51:02.408Z,2.60
2018-03-26T20:53:29.993Z,2.50
2018-03-26T20:55:57.503Z,2.40
2018-03-26T20:58:24.956Z,2.30
2018-03-26T21:00:52.418Z,2.20
2018-03-26T21:03:19.938Z,2.20
2018-03-26T21:05:48.481Z,2.10
2018-03-26T21:08:17.725Z,2.00
2018-03-26T21:10:45.272Z,1.90
2018-03-26T21:13:12.772Z,2.00
2018-03-26T21:15:40.264Z,1.90
2018-03-26T21:18:08.492Z,1.80
2018-03-26T21:20:36.022Z,1.70
2018-03-26T21:23:03.487Z,1.70
2018-03-26T21:25:30.976Z,1.60
2018-03-26T21:27:59.404Z,1.60
2018-03-26T21:30:27.640Z,1.40
2018-03-26T21:32:55.108Z,1.30
2018-03-26T21:35:22.637Z,1.30
2018-03-26T21:37:50.554Z,1.20
2018-03-26T21:40:18.157Z,1.10
2018-03-26T21:42:45.865Z,1.10
2018-03-26T21:45:13.318Z,1.10
2018-03-26T21:47:40.835Z,1.00
2018-03-26T21:50:08.260Z,0.90
2018-03-26T21:52:36.696Z,0.90
2018-03-26T21:55:05.321Z,0.80
2018-03-26T21:57:35.567Z,0.90
2018-03-26T22:00:03.049Z,0.80
2018-03-26T22:02:30.556Z,0.90
2018-03-26T22:04:58.793Z,0.80
2018-03-26T22:07:26.257Z,0.80
2018-03-26T22:09:53.708Z,0.80
2018-03-26T22:12:21.198Z,0.80
2018-03-26T22:14:49.667Z,0.80
2018-03-26T22:17:17.121Z,0.80
2018-03-26T22:19:44.612Z,0.80
2018-03-26T22:22:12.847Z,0.90
2018-03-26T22:24:40.946Z,0.90
2018-03-26T22:27:09.185Z,1.00
2018-03-26T22:29:37.317Z,0.90
2018-03-26T22:32:04.831Z,1.00
2018-03-26T22:34:32.297Z,1.00
2018-03-26T22:36:59.740Z,1.00
2018-03-26T22:39:27.271Z,1.00
2018-03-26T22:41:54.743Z,1.00
2018-03-26T22:44:22.227Z,1.00
2018-03-26T22:46:57.844Z,1.10
2018-03-26T22:49:25.353Z,1.10
2018-03-26T22:51:58.997Z,1.10
2018-03-26T22:54:26.442Z,1.10
2018-03-26T22:56:54.661Z,1.10
2018-03-26T22:59:22.169Z,1.10
2018-03-26T23:01:50.391Z,1.20
2018-03-26T23:04:17.827Z,1.20
2018-03-26T23:06:45.319Z,1.30
2018-03-26T23:09:12.784Z,1.30
2018-03-26T23:11:40.722Z,1.30
2018-03-26T23:14:08.340Z,1.40
2018-03-26T23:16:36.569Z,1.40
2018-03-26T23:19:04.155Z,1.30
2018-03-26T23:21:31.772Z,1.40
2018-03-26T23:23:59.259Z,1.40
2018-03-26T23:26:26.727Z,1.40
2018-03-26T23:28:54.208Z,1.50
2018-03-26T23:31:22.464Z,1.60
2018-03-26T23:33:50.010Z,1.50
2018-03-26T23:39:19.389Z,1.60
2018-03-26T23:41:46.892Z,1.60
2018-03-26T23:44:14.337Z,1.60
2018-03-26T23:46:41.812Z,1.60
2018-03-26T23:49:09.422Z,1.70
2018-03-26T23:51:36.906Z,1.70
2018-03-26T23:54:04.423Z,1.70
2018-03-26T23:56:32.656Z,1.70
2018-03-26T23:59:01.307Z,1.60
